sensor_id;sensor_type;location;lat;lon;timestamp;pressure;altitude;pressure_sealevel;temperature;humidity
27729;BME280;15126;42.186;24.340;2023-03-01T00:01:01;100072.34;;;7.07;100.00
27729;BME280;15126;42.186;24.340;2023-03-01T00:03:28;100059.66;;;7.03;100.00
27729;BME280;15126;42.186;24.340;2023-03-01T00:05:55;100074.75;;;7.12;100.00
27729;BME280;15126;42.186;24.340;2023-03-01T00:08:21;100059.66;;;7.03;100.00
27729;BME280;15126;42.186;24.340;2023-03-01T00:10:48;100062.03;;;7.04;100.00
27729;BME280;15126;42.186;24.340;2023-03-01T00:13:17;100066.81;;;7.11;100.00
27729;BME280;15126;42.186;24.340;2023-03-01T00:15:43;100064.88;;;7.18;100.00
27729;BME280;15126;42.186;24.340;2023-03-01T00:18:10;100066.84;;;7.18;100.00
27729;BME280;15126;42.186;24.340;2023-03-01T00:20:37;100063.28;;;7.17;100.00
27729;BME280;15126;42.186;24.340;2023-03-01T00:23:04;100060.53;;;7.21;100.00
27729;BME280;15126;42.186;24.340;2023-03-01T00:25:31;100060.06;;;7.05;100.00
27729;BME280;15126;42.186;24.340;2023-03-01T00:27:58;100063.66;;;7.12;100.00
27729;BME280;15126;42.186;24.340;2023-03-01T00:30:26;100066.03;;;7.17;100.00
27729;BME280;15126;42.186;24.340;2023-03-01T00:32:53;100069.63;;;7.14;100.00
27729;BME280;15126;42.186;24.340;2023-03-01T00:35:19;100062.88;;;7.15;100.00
27729;BME280;15126;42.186;24.340;2023-03-01T00:37:48;100063.69;;;7.16;100.00
27729;BME280;15126;42.186;24.340;2023-03-01T00:40:19;100059.69;;;7.13;100.00
27729;BME280;15126;42.186;24.340;2023-03-01T00:42:45;100059.69;;;7.13;100.00
27729;BME280;15126;42.186;24.340;2023-03-01T00:45:12;100057.31;;;7.15;100.00
27729;BME280;15126;42.186;24.340;2023-03-01T00:47:40;100060.47;;;7.10;100.00
27729;BME280;15126;42.186;24.340;2023-03-01T00:50:08;100052.19;;;7.21;100.00
27729;BME280;15126;42.186;24.340;2023-03-01T00:52:36;100045.38;;;7.01;100.00
27729;BME280;15126;42.186;24.340;2023-03-01T00:55:03;100040.63;;;6.98;100.00
27729;BME280;15126;42.186;24.340;2023-03-01T00:57:30;100030.75;;;7.07;100.00
27729;BME280;15126;42.186;24.340;2023-03-01T00:59:57;100035.88;;;6.98;100.00
27729;BME280;15126;42.186;24.340;2023-03-01T01:02:24;100029.81;;;6.82;100.00
27729;BME280;15126;42.186;24.340;2023-03-01T01:04:52;100034.59;;;6.85;100.00
27729;BME280;15126;42.186;24.340;2023-03-01T01:07:19;100040.97;;;6.89;100.00
27729;BME280;15126;42.186;24.340;2023-03-01T01:09:46;100027.09;;;6.89;100.00
27729;BME280;15126;42.186;24.340;2023-03-01T01:12:13;100033.44;;;6.93;100.00
27729;BME280;15126;42.186;24.340;2023-03-01T01:14:39;100014.88;;;6.97;100.00
27729;BME280;15126;42.186;24.340;2023-03-01T01:17:06;100012.50;;;6.99;100.00
27729;BME280;15126;42.186;24.340;2023-03-01T01:19:33;100011.28;;;6.97;100.00
27729;BME280;15126;42.186;24.340;2023-03-01T01:22:01;100020.34;;;6.90;100.00
27729;BME280;15126;42.186;24.340;2023-03-01T01:24:28;100015.19;;;6.82;100.00
27729;BME280;15126;42.186;24.340;2023-03-01T01:26:56;100018.78;;;6.89;100.00
27729;BME280;15126;42.186;24.340;2023-03-01T01:29:22;100010.13;;;6.98;100.00
27729;BME280;15126;42.186;24.340;2023-03-01T01:31:49;100016.47;;;6.98;100.00
27729;BME280;15126;42.186;24.340;2023-03-01T01:34:18;100014.41;;;6.88;100.00
27729;BME280;15126;42.186;24.340;2023-03-01T01:36:48;100006.84;;;6.78;100.00
27729;BME280;15126;42.186;24.340;2023-03-01T01:39:16;99985.00;;;6.66;100.00
27729;BME280;15126;42.186;24.340;2023-03-01T01:41:43;100015.25;;;6.92;100.00
27729;BME280;15126;42.186;24.340;2023-03-01T01:44:19;100025.91;;;6.90;100.00
27729;BME280;15126;42.186;24.340;2023-03-01T01:46:49;100007.28;;;6.84;100.00
27729;BME280;15126;42.186;24.340;2023-03-01T01:49:28;100015.63;;;6.91;100.00
27729;BME280;15126;42.186;24.340;2023-03-01T01:52:02;100014.41;;;6.88;100.00
27729;BME280;15126;42.186;24.340;2023-03-01T01:54:37;100010.78;;;6.77;100.00
27729;BME280;15126;42.186;24.340;2023-03-01T01:57:10;100014.81;;;6.87;100.00
27729;BME280;15126;42.186;24.340;2023-03-01T01:59:40;100006.84;;;6.78;100.00
27729;BME280;15126;42.186;24.340;2023-03-01T02:02:09;99998.91;;;6.77;100.00
27729;BME280;15126;42.186;24.340;2023-03-01T02:04:36;100002.53;;;6.84;100.00
27729;BME280;15126;42.186;24.340;2023-03-01T02:07:08;99999.34;;;6.86;100.00
27729;BME280;15126;42.186;24.340;2023-03-01T02:09:39;99998.53;;;6.78;100.00
27729;BME280;15126;42.186;24.340;2023-03-01T02:12:07;100002.47;;;6.77;100.00
27729;BME280;15126;42.186;24.340;2023-03-01T02:14:34;99998.53;;;6.78;100.00
27729;BME280;15126;42.186;24.340;2023-03-01T02:17:01;100000.13;;;6.83;100.00
27729;BME280;15126;42.186;24.340;2023-03-01T02:22:22;99995.72;;;6.71;100.00
27729;BME280;15126;42.186;24.340;2023-03-01T02:25:00;99996.88;;;6.67;100.00
27729;BME280;15126;42.186;24.340;2023-03-01T02:27:38;99987.34;;;6.60;100.00
27729;BME280;15126;42.186;24.340;2023-03-01T02:30:10;99996.50;;;6.72;100.00
27729;BME280;15126;42.186;24.340;2023-03-01T02:32:39;99995.34;;;6.76;100.00
27729;BME280;15126;42.186;24.340;2023-03-01T02:35:09;99987.38;;;6.64;100.00
27729;BME280;15126;42.186;24.340;2023-03-01T02:37:37;99995.75;;;6.78;100.00
27729;BME280;15126;42.186;24.340;2023-03-01T02:40:09;99994.56;;;6.76;100.00
27729;BME280;15126;42.186;24.340;2023-03-01T02:42:45;99993.78;;;6.82;100.00
27729;BME280;15126;42.186;24.340;2023-03-01T02:45:16;99992.97;;;6.71;100.00
27729;BME280;15126;42.186;24.340;2023-03-01T02:47:43;99986.63;;;6.78;100.00
27729;BME280;15126;42.186;24.340;2023-03-01T02:50:19;99986.63;;;6.74;100.00
27729;BME280;15126;42.186;24.340;2023-03-01T02:52:55;99996.56;;;6.79;100.00
27729;BME280;15126;42.186;24.340;2023-03-01T02:55:22;99986.59;;;6.67;100.00
27729;BME280;15126;42.186;24.340;2023-03-01T02:57:49;99981.44;;;6.69;100.00
27729;BME280;15126;42.186;24.340;2023-03-01T03:00:20;99985.38;;;6.65;100.00
27729;BME280;15126;42.186;24.340;2023-03-01T03:02:53;99989.72;;;6.62;100.00
27729;BME280;15126;42.186;24.340;2023-03-01T03:05:24;99969.13;;;6.59;100.00
27729;BME280;15126;42.186;24.340;2023-03-01T03:07:51;99990.19;;;6.75;100.00
27729;BME280;15126;42.186;24.340;2023-03-01T03:10:21;99988.19;;;6.72;100.00
27729;BME280;15126;42.186;24.340;2023-03-01T03:12:52;99970.75;;;6.68;100.00
27729;BME280;15126;42.186;24.340;2023-03-01T03:15:21;99988.22;;;6.75;100.00
27729;BME280;15126;42.186;24.340;2023-03-01T03:17:49;99982.22;;;6.66;100.00
27729;BME280;15126;42.186;24.340;2023-03-01T03:20:17;99985.41;;;6.68;100.00
27729;BME280;15126;42.186;24.340;2023-03-01T03:22:45;99960.78;;;6.52;100.00
27729;BME280;15126;42.186;24.340;2023-03-01T03:25:13;99991.81;;;6.79;100.00
27729;BME280;15126;42.186;24.340;2023-03-01T03:27:42;99969.16;;;6.67;100.00
27729;BME280;15126;42.186;24.340;2023-03-01T03:30:12;99987.44;;;6.78;100.00
27729;BME280;15126;42.186;24.340;2023-03-01T03:32:42;99994.59;;;6.79;100.00
27729;BME280;15126;42.186;24.340;2023-03-01T03:35:16;99988.97;;;6.69;100.00
27729;BME280;15126;42.186;24.340;2023-03-01T03:37:42;99991.38;;;6.74;100.00
27729;BME280;15126;42.186;24.340;2023-03-01T03:40:29;99975.06;;;6.58;100.00
27729;BME280;15126;42.186;24.340;2023-03-01T03:42:56;99987.00;;;6.69;100.00
27729;BME280;15126;42.186;24.340;2023-03-01T03:45:23;99983.78;;;6.64;100.00
27729;BME280;15126;42.186;24.340;2023-03-01T03:47:51;99988.19;;;6.72;100.00
27729;BME280;15126;42.186;24.340;2023-03-01T03:50:19;99986.56;;;6.60;100.00
27729;BME280;15126;42.186;24.340;2023-03-01T03:52:45;99985.78;;;6.67;100.00
27729;BME280;15126;42.186;24.340;2023-03-01T03:55:12;99973.88;;;6.59;100.00
27729;BME280;15126;42.186;24.340;2023-03-01T03:57:40;99988.06;;;6.50;100.00
27729;BME280;15126;42.186;24.340;2023-03-01T04:00:09;99989.69;;;6.55;100.00
27729;BME280;15126;42.186;24.340;2023-03-01T04:02:38;99984.97;;;6.59;100.00
27729;BME280;15126;42.186;24.340;2023-03-01T04:05:08;99988.09;;;6.54;100.00
27729;BME280;15126;42.186;24.340;2023-03-01T04:07:36;100010.69;;;6.59;100.00
27729;BME280;15126;42.186;24.340;2023-03-01T04:10:03;99998.72;;;6.45;100.00
27729;BME280;15126;42.186;24.340;2023-03-01T04:12:31;99992.75;;;6.39;100.00
27729;BME280;15126;42.186;24.340;2023-03-01T04:14:59;100001.91;;;6.43;100.00
27729;BME280;15126;42.186;24.340;2023-03-01T04:17:26;99995.94;;;6.45;100.00
27729;BME280;15126;42.186;24.340;2023-03-01T04:19:53;99993.59;;;6.47;100.00
27729;BME280;15126;42.186;24.340;2023-03-01T04:22:21;99984.84;;;6.41;100.00
27729;BME280;15126;42.186;24.340;2023-03-01T04:24:48;99984.84;;;6.38;100.00
27729;BME280;15126;42.186;24.340;2023-03-01T04:27:15;100000.75;;;6.51;100.00
27729;BME280;15126;42.186;24.340;2023-03-01T04:29:41;99996.78;;;6.52;100.00
27729;BME280;15126;42.186;24.340;2023-03-01T04:32:08;99998.41;;;6.57;100.00
27729;BME280;15126;42.186;24.340;2023-03-01T04:34:35;100002.75;;;6.58;100.00
27729;BME280;15126;42.186;24.340;2023-03-01T04:37:02;100003.19;;;6.60;100.00
27729;BME280;15126;42.186;24.340;2023-03-01T04:39:30;99996.78;;;6.52;100.00
27729;BME280;15126;42.186;24.340;2023-03-01T04:41:58;99999.22;;;6.61;100.00
27729;BME280;15126;42.186;24.340;2023-03-01T04:44:25;99985.31;;;6.50;100.00
27729;BME280;15126;42.186;24.340;2023-03-01T04:47:10;100002.00;;;6.57;100.00
27729;BME280;15126;42.186;24.340;2023-03-01T04:49:57;99997.28;;;6.65;100.00
27729;BME280;15126;42.186;24.340;2023-03-01T04:52:24;99994.44;;;6.54;100.00
27729;BME280;15126;42.186;24.340;2023-03-01T04:54:52;99987.38;;;6.64;100.00
27729;BME280;15126;42.186;24.340;2023-03-01T04:57:40;99987.75;;;6.63;100.00
27729;BME280;15126;42.186;24.340;2023-03-01T05:00:27;99980.19;;;6.56;100.00
27729;BME280;15126;42.186;24.340;2023-03-01T05:03:14;99985.78;;;6.67;100.00
27729;BME280;15126;42.186;24.340;2023-03-01T05:06:04;99981.84;;;6.68;100.00
27729;BME280;15126;42.186;24.340;2023-03-01T05:08:30;99985.44;;;6.75;100.00
27729;BME280;15126;42.186;24.340;2023-03-01T05:11:01;99987.38;;;6.68;100.00
27729;BME280;15126;42.186;24.340;2023-03-01T05:13:27;99998.84;;;6.66;100.00
27729;BME280;15126;42.186;24.340;2023-03-01T05:15:55;99981.31;;;6.44;100.00
27729;BME280;15126;42.186;24.340;2023-03-01T05:18:22;100000.06;;;6.65;100.00
27729;BME280;15126;42.186;24.340;2023-03-01T05:20:51;100004.38;;;6.66;100.00
27729;BME280;15126;42.186;24.340;2023-03-01T05:23:18;100000.47;;;6.71;100.00
27729;BME280;15126;42.186;24.340;2023-03-01T05:25:45;100006.44;;;6.76;100.00
27729;BME280;15126;42.186;24.340;2023-03-01T05:28:13;100009.22;;;6.76;100.00
27729;BME280;15126;42.186;24.340;2023-03-01T05:30:40;100012.00;;;6.83;100.00
27729;BME280;15126;42.186;24.340;2023-03-01T05:33:08;100013.63;;;6.88;100.00
27729;BME280;15126;42.186;24.340;2023-03-01T05:35:39;100010.06;;;6.87;100.00
27729;BME280;15126;42.186;24.340;2023-03-01T05:38:06;100015.63;;;6.87;100.00
27729;BME280;15126;42.186;24.340;2023-03-01T05:40:34;100007.69;;;6.89;100.00
27729;BME280;15126;42.186;24.340;2023-03-01T05:43:01;100018.38;;;6.91;100.00
27729;BME280;15126;42.186;24.340;2023-03-01T05:45:31;100017.97;;;6.85;100.00
27729;BME280;15126;42.186;24.340;2023-03-01T05:47:58;100013.63;;;6.84;100.00
27729;BME280;15126;42.186;24.340;2023-03-01T05:50:27;100019.16;;;6.88;100.00
27729;BME280;15126;42.186;24.340;2023-03-01T05:52:58;100023.16;;;6.94;100.00
27729;BME280;15126;42.186;24.340;2023-03-01T05:55:26;100023.94;;;6.94;100.00
27729;BME280;15126;42.186;24.340;2023-03-01T05:57:53;100024.69;;;6.88;100.00
27729;BME280;15126;42.186;24.340;2023-03-01T06:00:20;100025.56;;;6.95;100.00
27729;BME280;15126;42.186;24.340;2023-03-01T06:02:50;100020.41;;;6.97;100.00
27729;BME280;15126;42.186;24.340;2023-03-01T06:05:17;100031.91;;;7.03;100.00
27729;BME280;15126;42.186;24.340;2023-03-01T06:07:44;100032.69;;;7.00;100.00
27729;BME280;15126;42.186;24.340;2023-03-01T06:10:12;100028.66;;;6.90;100.00
27729;BME280;15126;42.186;24.340;2023-03-01T06:12:40;100017.97;;;6.82;100.00
27729;BME280;15126;42.186;24.340;2023-03-01T06:15:08;100026.31;;;6.89;100.00
27729;BME280;15126;42.186;24.340;2023-03-01T06:17:37;100027.84;;;6.79;100.00
27729;BME280;15126;42.186;24.340;2023-03-01T06:20:08;100035.78;;;6.88;100.00
27729;BME280;15126;42.186;24.340;2023-03-01T06:22:37;100041.34;;;6.88;100.00
27729;BME280;15126;42.186;24.340;2023-03-01T06:25:05;100040.88;;;6.75;100.00
27729;BME280;15126;42.186;24.340;2023-03-01T06:27:32;100034.88;;;6.66;100.00
27729;BME280;15126;42.186;24.340;2023-03-01T06:29:59;100046.06;;;6.80;100.00
27729;BME280;15126;42.186;24.340;2023-03-01T06:32:26;100023.81;;;6.70;100.00
27729;BME280;15126;42.186;24.340;2023-03-01T06:34:53;100033.72;;;6.71;100.00
27729;BME280;15126;42.186;24.340;2023-03-01T06:37:21;100047.25;;;6.79;100.00
27729;BME280;15126;42.186;24.340;2023-03-01T06:39:48;100053.19;;;6.81;100.00
27729;BME280;15126;42.186;24.340;2023-03-01T06:42:15;100055.56;;;6.83;100.00
27729;BME280;15126;42.186;24.340;2023-03-01T06:44:42;100053.22;;;6.85;100.00
27729;BME280;15126;42.186;24.340;2023-03-01T06:47:09;100052.41;;;6.81;100.00
27729;BME280;15126;42.186;24.340;2023-03-01T06:49:35;100038.94;;;6.79;100.00
27729;BME280;15126;42.186;24.340;2023-03-01T06:52:02;100054.78;;;6.86;100.00
27729;BME280;15126;42.186;24.340;2023-03-01T06:54:31;100057.09;;;6.77;100.00
27729;BME280;15126;42.186;24.340;2023-03-01T06:56:57;100047.19;;;6.72;100.00
27729;BME280;15126;42.186;24.340;2023-03-01T06:59:24;100031.34;;;6.69;100.00
27729;BME280;15126;42.186;24.340;2023-03-01T07:01:51;100047.25;;;6.79;100.00
27729;BME280;15126;42.186;24.340;2023-03-01T07:04:18;100054.44;;;6.87;100.00
27729;BME280;15126;42.186;24.340;2023-03-01T07:06:45;100052.09;;;6.93;100.00
27729;BME280;15126;42.186;24.340;2023-03-01T07:09:17;100032.59;;;6.82;100.00
27729;BME280;15126;42.186;24.340;2023-03-01T07:11:46;100041.38;;;6.95;100.00
27729;BME280;15126;42.186;24.340;2023-03-01T07:14:13;100048.50;;;6.92;100.00
27729;BME280;15126;42.186;24.340;2023-03-01T07:16:40;100041.38;;;6.95;100.00
27729;BME280;15126;42.186;24.340;2023-03-01T07:19:07;100047.34;;;6.97;100.00
27729;BME280;15126;42.186;24.340;2023-03-01T07:21:33;100019.94;;;6.81;100.00
27729;BME280;15126;42.186;24.340;2023-03-01T07:24:00;100047.75;;;7.02;100.00
27729;BME280;15126;42.186;24.340;2023-03-01T07:26:27;100047.38;;;7.00;100.00
27729;BME280;15126;42.186;24.340;2023-03-01T07:28:55;100048.94;;;7.01;100.00
27729;BME280;15126;42.186;24.340;2023-03-01T07:31:25;100048.16;;;7.04;100.00
27729;BME280;15126;42.186;24.340;2023-03-01T07:33:53;100041.47;;;7.09;100.00
27729;BME280;15126;42.186;24.340;2023-03-01T07:36:20;100039.13;;;7.14;100.00
27729;BME280;15126;42.186;24.340;2023-03-01T07:38:46;100046.97;;;7.05;100.00
27729;BME280;15126;42.186;24.340;2023-03-01T07:41:13;100049.00;;;7.12;100.00
27729;BME280;15126;42.186;24.340;2023-03-01T07:43:40;100027.94;;;6.97;100.00
27729;BME280;15126;42.186;24.340;2023-03-01T07:46:09;100047.75;;;7.02;100.00
27729;BME280;15126;42.186;24.340;2023-03-01T07:48:35;100039.06;;;7.07;100.00
27729;BME280;15126;42.186;24.340;2023-03-01T07:51:04;100040.31;;;7.17;100.00
27729;BME280;15126;42.186;24.340;2023-03-01T07:53:32;100031.97;;;7.20;100.00
27729;BME280;15126;42.186;24.340;2023-03-01T07:56:03;100030.44;;;7.27;100.00
27729;BME280;15126;42.186;24.340;2023-03-01T07:58:30;100020.09;;;7.24;100.00
27729;BME280;15126;42.186;24.340;2023-03-01T08:01:01;100032.41;;;7.26;100.00
27729;BME280;15126;42.186;24.340;2023-03-01T08:03:30;100029.66;;;7.37;100.00
27729;BME280;15126;42.186;24.340;2023-03-01T08:05:59;100031.66;;;7.40;100.00
27729;BME280;15126;42.186;24.340;2023-03-01T08:08:27;100028.91;;;7.43;100.00
27729;BME280;15126;42.186;24.340;2023-03-01T08:10:56;100019.78;;;7.36;100.00
27729;BME280;15126;42.186;24.340;2023-03-01T08:13:23;100028.09;;;7.36;100.00
27729;BME280;15126;42.186;24.340;2023-03-01T08:15:51;100032.06;;;7.38;100.00
27729;BME280;15126;42.186;24.340;2023-03-01T08:18:19;100033.25;;;7.34;100.00
27729;BME280;15126;42.186;24.340;2023-03-01T08:20:48;100036.03;;;7.41;100.00
27729;BME280;15126;42.186;24.340;2023-03-01T08:23:15;100030.84;;;7.32;100.00
27729;BME280;15126;42.186;24.340;2023-03-01T08:25:41;100033.66;;;7.43;100.00
27729;BME280;15126;42.186;24.340;2023-03-01T08:28:08;100015.44;;;7.42;100.00
27729;BME280;15126;42.186;24.340;2023-03-01T08:30:35;100028.53;;;7.59;100.00
27729;BME280;15126;42.186;24.340;2023-03-01T08:33:03;100029.34;;;7.63;100.00
27729;BME280;15126;42.186;24.340;2023-03-01T08:35:30;100025.81;;;7.66;100.00
27729;BME280;15126;42.186;24.340;2023-03-01T08:37:58;100024.16;;;7.44;100.00
27729;BME280;15126;42.186;24.340;2023-03-01T08:40:25;100021.41;;;7.54;100.00
27729;BME280;15126;42.186;24.340;2023-03-01T08:42:52;100027.31;;;7.53;100.00
27729;BME280;15126;42.186;24.340;2023-03-01T08:45:19;100017.03;;;7.50;100.00
27729;BME280;15126;42.186;24.340;2023-03-01T08:47:46;100021.00;;;7.52;100.00
27729;BME280;15126;42.186;24.340;2023-03-01T08:50:13;100023.38;;;7.54;100.00
27729;BME280;15126;42.186;24.340;2023-03-01T08:52:39;100013.88;;;7.55;100.00
27729;BME280;15126;42.186;24.340;2023-03-01T08:55:09;100016.25;;;7.67;100.00
27729;BME280;15126;42.186;24.340;2023-03-01T08:57:36;100017.84;;;7.75;100.00
27729;BME280;15126;42.186;24.340;2023-03-01T09:00:03;100017.06;;;7.71;100.00
27729;BME280;15126;42.186;24.340;2023-03-01T09:02:33;100019.47;;;7.79;100.00
27729;BME280;15126;42.186;24.340;2023-03-01T09:05:00;100020.28;;;7.87;100.00
27729;BME280;15126;42.186;24.340;2023-03-01T09:07:27;100023.84;;;7.98;100.00
27729;BME280;15126;42.186;24.340;2023-03-01T09:09:54;100033.75;;;7.92;100.00
27729;BME280;15126;42.186;24.340;2023-03-01T09:12:23;100025.44;;;8.03;100.00
27729;BME280;15126;42.186;24.340;2023-03-01T09:14:50;100027.81;;;8.08;100.00
27729;BME280;15126;42.186;24.340;2023-03-01T09:17:17;100023.88;;;8.12;100.00
27729;BME280;15126;42.186;24.340;2023-03-01T09:19:46;100021.88;;;8.16;99.57
27729;BME280;15126;42.186;24.340;2023-03-01T09:22:13;100016.69;;;8.18;99.91
27729;BME280;15126;42.186;24.340;2023-03-01T09:24:40;100026.66;;;8.12;100.00
27729;BME280;15126;42.186;24.340;2023-03-01T09:27:07;100016.72;;;8.11;99.16
27729;BME280;15126;42.186;24.340;2023-03-01T09:29:35;100017.50;;;8.12;98.93
27729;BME280;15126;42.186;24.340;2023-03-01T09:32:02;100014.34;;;8.06;99.45
27729;BME280;15126;42.186;24.340;2023-03-01T09:34:29;100017.13;;;8.10;99.53
27729;BME280;15126;42.186;24.340;2023-03-01T09:36:57;100015.13;;;8.07;98.81
27729;BME280;15126;42.186;24.340;2023-03-01T09:39:27;100014.72;;;7.98;98.79
27729;BME280;15126;42.186;24.340;2023-03-01T09:41:58;100006.00;;;8.03;99.50
27729;BME280;15126;42.186;24.340;2023-03-01T09:44:32;100006.41;;;8.01;99.89
27729;BME280;15126;42.186;24.340;2023-03-01T09:47:04;100004.78;;;8.07;99.13
27729;BME280;15126;42.186;24.340;2023-03-01T09:49:33;99998.44;;;8.10;99.39
27729;BME280;15126;42.186;24.340;2023-03-01T09:52:09;100003.22;;;8.13;98.59
27729;BME280;15126;42.186;24.340;2023-03-01T09:54:38;99998.47;;;8.17;97.38
27729;BME280;15126;42.186;24.340;2023-03-01T09:57:16;99987.72;;;8.02;97.80
27729;BME280;15126;42.186;24.340;2023-03-01T09:59:55;99995.69;;;7.96;98.29
27729;BME280;15126;42.186;24.340;2023-03-01T10:02:32;99990.91;;;7.86;98.06
27729;BME280;15126;42.186;24.340;2023-03-01T10:05:13;99986.94;;;7.98;98.85
27729;BME280;15126;42.186;24.340;2023-03-01T10:07:45;99985.38;;;8.04;99.14
27729;BME280;15126;42.186;24.340;2023-03-01T10:10:23;99982.97;;;8.06;98.81
27729;BME280;15126;42.186;24.340;2023-03-01T10:12:53;99973.47;;;8.03;98.01
27729;BME280;15126;42.186;24.340;2023-03-01T10:15:28;99986.94;;;8.15;98.76
27729;BME280;15126;42.186;24.340;2023-03-01T10:18:04;99985.78;;;7.99;97.95
27729;BME280;15126;42.186;24.340;2023-03-01T10:20:42;99991.31;;;8.09;99.42
27729;BME280;15126;42.186;24.340;2023-03-01T10:23:11;99988.53;;;8.09;98.64
27729;BME280;15126;42.186;24.340;2023-03-01T10:25:51;99984.16;;;8.05;97.62
27729;BME280;15126;42.186;24.340;2023-03-01T10:28:25;99966.31;;;8.09;97.82
27729;BME280;15126;42.186;24.340;2023-03-01T10:30:57;99978.59;;;8.15;97.75
27729;BME280;15126;42.186;24.340;2023-03-01T10:33:26;99975.47;;;8.31;97.92
27729;BME280;15126;42.186;24.340;2023-03-01T10:35:54;99969.47;;;8.25;97.21
27729;BME280;15126;42.186;24.340;2023-03-01T10:38:21;99977.81;;;8.15;96.17
27729;BME280;15126;42.186;24.340;2023-03-01T10:40:53;99967.50;;;8.19;97.11
27729;BME280;15126;42.186;24.340;2023-03-01T10:43:23;99956.41;;;7.94;96.80
27729;BME280;15126;42.186;24.340;2023-03-01T10:45:50;99967.13;;;8.06;96.88
27729;BME280;15126;42.186;24.340;2023-03-01T10:48:19;99961.53;;;8.17;97.12
27729;BME280;15126;42.186;24.340;2023-03-01T10:50:51;99965.09;;;8.21;97.86
27729;BME280;15126;42.186;24.340;2023-03-01T10:53:33;99963.94;;;8.04;100.00
27729;BME280;15126;42.186;24.340;2023-03-01T10:56:04;99948.44;;;8.21;100.00
27729;BME280;15126;42.186;24.340;2023-03-01T10:58:33;99932.97;;;8.20;99.46
27729;BME280;15126;42.186;24.340;2023-03-01T11:01:03;99940.13;;;8.31;98.30
27729;BME280;15126;42.186;24.340;2023-03-01T11:03:32;99936.94;;;8.29;97.93
27729;BME280;15126;42.186;24.340;2023-03-01T11:06:05;99934.97;;;8.33;97.59
27729;BME280;15126;42.186;24.340;2023-03-01T11:08:38;99934.97;;;8.30;98.08
27729;BME280;15126;42.186;24.340;2023-03-01T11:11:14;99931.00;;;8.27;97.12
27729;BME280;15126;42.186;24.340;2023-03-01T11:13:57;99920.25;;;8.22;96.92
27729;BME280;15126;42.186;24.340;2023-03-01T11:16:28;99912.69;;;8.26;97.11
27729;BME280;15126;42.186;24.340;2023-03-01T11:18:57;99917.47;;;8.26;97.13
27729;BME280;15126;42.186;24.340;2023-03-01T11:21:26;99909.56;;;8.31;97.46
27729;BME280;15126;42.186;24.340;2023-03-01T11:23:54;99908.38;;;8.15;97.52
27729;BME280;15126;42.186;24.340;2023-03-01T11:26:23;99907.56;;;8.07;98.60
27729;BME280;15126;42.186;24.340;2023-03-01T11:28:53;99889.34;;;7.99;97.95
27729;BME280;15126;42.186;24.340;2023-03-01T11:31:24;99900.81;;;8.15;98.98
27729;BME280;15126;42.186;24.340;2023-03-01T11:33:56;99894.88;;;8.20;99.94
27729;BME280;15126;42.186;24.340;2023-03-01T11:36:29;99898.84;;;8.23;99.45
27729;BME280;15126;42.186;24.340;2023-03-01T11:39:03;99894.06;;;8.27;98.83
27729;BME280;15126;42.186;24.340;2023-03-01T11:41:36;99895.25;;;8.29;99.82
27729;BME280;15126;42.186;24.340;2023-03-01T11:44:16;99888.91;;;8.29;97.50
27729;BME280;15126;42.186;24.340;2023-03-01T11:47:07;99888.06;;;8.43;97.80
27729;BME280;15126;42.186;24.340;2023-03-01T11:49:55;99878.97;;;8.38;97.37
27729;BME280;15126;42.186;24.340;2023-03-01T11:52:35;99868.69;;;8.28;96.18
27729;BME280;15126;42.186;24.340;2023-03-01T11:55:19;99875.44;;;8.27;97.08
27729;BME280;15126;42.186;24.340;2023-03-01T11:58:04;99874.16;;;8.43;96.82
27729;BME280;15126;42.186;24.340;2023-03-01T12:00:45;99875.81;;;8.33;94.97
27729;BME280;15126;42.186;24.340;2023-03-01T12:03:26;99878.97;;;8.38;94.65
27729;BME280;15126;42.186;24.340;2023-03-01T12:06:03;99882.53;;;8.35;94.90
27729;BME280;15126;42.186;24.340;2023-03-01T12:08:37;99874.22;;;8.32;95.52
27729;BME280;15126;42.186;24.340;2023-03-01T12:11:16;99871.03;;;8.26;96.05
27729;BME280;15126;42.186;24.340;2023-03-01T12:17:10;99880.56;;;8.40;94.59
27729;BME280;15126;42.186;24.340;2023-03-01T12:19:56;99876.94;;;8.50;95.40
27729;BME280;15126;42.186;24.340;2023-03-01T12:22:29;99877.78;;;8.36;96.17
27729;BME280;15126;42.186;24.340;2023-03-01T12:25:16;99871.44;;;8.35;96.02
27729;BME280;15126;42.186;24.340;2023-03-01T12:27:59;99875.00;;;8.32;95.93
27729;BME280;15126;42.186;24.340;2023-03-01T12:30:39;99842.47;;;8.22;96.33
27729;BME280;15126;42.186;24.340;2023-03-01T12:33:17;99869.44;;;8.32;95.91
27729;BME280;15126;42.186;24.340;2023-03-01T12:35:54;99861.50;;;8.38;96.21
27729;BME280;15126;42.186;24.340;2023-03-01T12:38:33;99853.53;;;8.47;96.37
27729;BME280;15126;42.186;24.340;2023-03-01T12:41:24;99851.94;;;8.50;96.01
27729;BME280;15126;42.186;24.340;2023-03-01T12:44:04;99851.88;;;8.64;95.70
27729;BME280;15126;42.186;24.340;2023-03-01T12:46:45;99850.69;;;8.61;96.22
27729;BME280;15126;42.186;24.340;2023-03-01T12:49:21;99862.13;;;8.74;95.14
27729;BME280;15126;42.186;24.340;2023-03-01T12:51:54;99871.22;;;8.81;94.34
27729;BME280;15126;42.186;24.340;2023-03-01T12:54:27;99868.13;;;8.72;94.28
27729;BME280;15126;42.186;24.340;2023-03-01T12:56:57;99862.94;;;8.71;93.60
27729;BME280;15126;42.186;24.340;2023-03-01T12:59:33;99849.44;;;8.73;92.62
27729;BME280;15126;42.186;24.340;2023-03-01T13:02:12;99844.03;;;8.41;93.14
27729;BME280;15126;42.186;24.340;2023-03-01T13:04:54;99852.69;;;8.54;93.96
27729;BME280;15126;42.186;24.340;2023-03-01T13:07:28;99843.22;;;8.48;94.12
27729;BME280;15126;42.186;24.340;2023-03-01T13:10:06;99854.31;;;8.48;95.10